sensor_id;sensor_type;location;lat;lon;timestamp;P1;durP1;ratioP1;P2;durP2;ratioP2
58470;SDS011;44258;51.288;12.068;2023-03-04T00:00:57;34.17;;;11.73;;
58470;SDS011;44258;51.288;12.068;2023-03-04T00:03:23;30.45;;;11.70;;
58470;SDS011;44258;51.288;12.068;2023-03-04T00:05:50;32.47;;;11.85;;
58470;SDS011;44258;51.288;12.068;2023-03-04T00:08:18;31.67;;;12.95;;
58470;SDS011;44258;51.288;12.068;2023-03-04T00:10:44;33.60;;;12.43;;
58470;SDS011;44258;51.288;12.068;2023-03-04T00:13:10;31.98;;;10.43;;
58470;SDS011;44258;51.288;12.068;2023-03-04T00:15:37;29.20;;;11.65;;
58470;SDS011;44258;51.288;12.068;2023-03-04T00:18:04;31.00;;;10.98;;
58470;SDS011;44258;51.288;12.068;2023-03-04T00:20:30;29.80;;;11.02;;
58470;SDS011;44258;51.288;12.068;2023-03-04T00:22:56;35.70;;;10.70;;
58470;SDS011;44258;51.288;12.068;2023-03-04T00:25:24;29.33;;;10.73;;
58470;SDS011;44258;51.288;12.068;2023-03-04T00:27:51;26.23;;;9.95;;
58470;SDS011;44258;51.288;12.068;2023-03-04T00:30:17;26.20;;;9.95;;
58470;SDS011;44258;51.288;12.068;2023-03-04T00:32:44;26.33;;;9.40;;
58470;SDS011;44258;51.288;12.068;2023-03-04T00:35:13;27.08;;;10.07;;
58470;SDS011;44258;51.288;12.068;2023-03-04T00:37:40;24.88;;;9.40;;
58470;SDS011;44258;51.288;12.068;2023-03-04T00:40:06;34.42;;;11.30;;
58470;SDS011;44258;51.288;12.068;2023-03-04T00:42:35;32.67;;;10.32;;
58470;SDS011;44258;51.288;12.068;2023-03-04T00:45:02;27.42;;;10.93;;
58470;SDS011;44258;51.288;12.068;2023-03-04T00:47:29;26.05;;;9.85;;
58470;SDS011;44258;51.288;12.068;2023-03-04T00:49:55;27.67;;;10.60;;
58470;SDS011;44258;51.288;12.068;2023-03-04T00:52:22;23.08;;;9.40;;
58470;SDS011;44258;51.288;12.068;2023-03-04T00:54:48;27.55;;;9.88;;
58470;SDS011;44258;51.288;12.068;2023-03-04T00:57:14;26.73;;;10.40;;
58470;SDS011;44258;51.288;12.068;2023-03-04T00:59:42;31.88;;;10.60;;
58470;SDS011;44258;51.288;12.068;2023-03-04T01:02:10;25.80;;;9.27;;
58470;SDS011;44258;51.288;12.068;2023-03-04T01:04:37;26.35;;;9.32;;
58470;SDS011;44258;51.288;12.068;2023-03-04T01:07:03;29.13;;;10.88;;
58470;SDS011;44258;51.288;12.068;2023-03-04T01:09:30;27.50;;;9.90;;
58470;SDS011;44258;51.288;12.068;2023-03-04T01:11:56;27.10;;;9.75;;
58470;SDS011;44258;51.288;12.068;2023-03-04T01:14:23;25.42;;;10.52;;
58470;SDS011;44258;51.288;12.068;2023-03-04T01:16:51;28.65;;;10.40;;
58470;SDS011;44258;51.288;12.068;2023-03-04T01:19:17;28.38;;;9.30;;
58470;SDS011;44258;51.288;12.068;2023-03-04T01:21:44;27.35;;;9.55;;
58470;SDS011;44258;51.288;12.068;2023-03-04T01:24:11;27.20;;;10.15;;
58470;SDS011;44258;51.288;12.068;2023-03-04T01:26:37;26.73;;;10.23;;
58470;SDS011;44258;51.288;12.068;2023-03-04T01:29:04;27.60;;;10.15;;
58470;SDS011;44258;51.288;12.068;2023-03-04T01:31:30;28.30;;;9.68;;
58470;SDS011;44258;51.288;12.068;2023-03-04T01:33:58;31.45;;;10.80;;
58470;SDS011;44258;51.288;12.068;2023-03-04T01:36:24;30.67;;;11.50;;
58470;SDS011;44258;51.288;12.068;2023-03-04T01:38:51;25.63;;;9.05;;
58470;SDS011;44258;51.288;12.068;2023-03-04T01:41:18;31.08;;;10.27;;
58470;SDS011;44258;51.288;12.068;2023-03-04T01:43:49;25.38;;;10.30;;
58470;SDS011;44258;51.288;12.068;2023-03-04T01:46:15;28.88;;;9.80;;
58470;SDS011;44258;51.288;12.068;2023-03-04T01:48:42;30.17;;;10.70;;
58470;SDS011;44258;51.288;12.068;2023-03-04T01:51:12;33.53;;;10.82;;
58470;SDS011;44258;51.288;12.068;2023-03-04T01:53:41;29.23;;;10.68;;
58470;SDS011;44258;51.288;12.068;2023-03-04T01:56:14;31.30;;;9.52;;
58470;SDS011;44258;51.288;12.068;2023-03-04T01:58:43;30.30;;;10.00;;
58470;SDS011;44258;51.288;12.068;2023-03-04T02:01:10;27.60;;;9.88;;
58470;SDS011;44258;51.288;12.068;2023-03-04T02:03:37;33.47;;;10.90;;
58470;SDS011;44258;51.288;12.068;2023-03-04T02:06:04;30.23;;;9.98;;
58470;SDS011;44258;51.288;12.068;2023-03-04T02:08:32;26.52;;;9.88;;
58470;SDS011;44258;51.288;12.068;2023-03-04T02:10:59;28.20;;;9.68;;
58470;SDS011;44258;51.288;12.068;2023-03-04T02:13:26;29.98;;;10.10;;
58470;SDS011;44258;51.288;12.068;2023-03-04T02:15:52;28.58;;;10.63;;
58470;SDS011;44258;51.288;12.068;2023-03-04T02:18:19;29.70;;;9.55;;
58470;SDS011;44258;51.288;12.068;2023-03-04T02:20:50;30.42;;;11.38;;
58470;SDS011;44258;51.288;12.068;2023-03-04T02:23:24;31.27;;;10.73;;
58470;SDS011;44258;51.288;12.068;2023-03-04T02:26:07;29.77;;;10.43;;
58470;SDS011;44258;51.288;12.068;2023-03-04T02:28:37;28.02;;;9.93;;
58470;SDS011;44258;51.288;12.068;2023-03-04T02:31:03;27.90;;;10.00;;
58470;SDS011;44258;51.288;12.068;2023-03-04T02:33:30;27.08;;;9.93;;
58470;SDS011;44258;51.288;12.068;2023-03-04T02:35:57;31.05;;;10.32;;
58470;SDS011;44258;51.288;12.068;2023-03-04T02:38:24;29.00;;;11.25;;
58470;SDS011;44258;51.288;12.068;2023-03-04T02:40:51;26.63;;;10.27;;
58470;SDS011;44258;51.288;12.068;2023-03-04T02:43:22;28.25;;;10.18;;
58470;SDS011;44258;51.288;12.068;2023-03-04T02:45:49;29.27;;;10.02;;
58470;SDS011;44258;51.288;12.068;2023-03-04T02:48:19;29.10;;;11.07;;
58470;SDS011;44258;51.288;12.068;2023-03-04T02:50:49;32.63;;;11.43;;
58470;SDS011;44258;51.288;12.068;2023-03-04T02:53:16;27.67;;;10.40;;
58470;SDS011;44258;51.288;12.068;2023-03-04T02:55:44;28.52;;;11.25;;
58470;SDS011;44258;51.288;12.068;2023-03-04T02:58:11;30.58;;;10.43;;
58470;SDS011;44258;51.288;12.068;2023-03-04T03:00:40;25.80;;;10.20;;
58470;SDS011;44258;51.288;12.068;2023-03-04T03:03:06;30.15;;;10.68;;
58470;SDS011;44258;51.288;12.068;2023-03-04T03:05:33;30.50;;;10.98;;
58470;SDS011;44258;51.288;12.068;2023-03-04T03:08:00;29.77;;;11.55;;
58470;SDS011;44258;51.288;12.068;2023-03-04T03:10:26;32.85;;;12.38;;
58470;SDS011;44258;51.288;12.068;2023-03-04T03:12:52;31.17;;;11.68;;
58470;SDS011;44258;51.288;12.068;2023-03-04T03:15:19;31.63;;;12.07;;
58470;SDS011;44258;51.288;12.068;2023-03-04T03:17:47;32.33;;;11.50;;
58470;SDS011;44258;51.288;12.068;2023-03-04T03:20:14;28.48;;;11.45;;
58470;SDS011;44258;51.288;12.068;2023-03-04T03:22:41;30.15;;;11.48;;
58470;SDS011;44258;51.288;12.068;2023-03-04T03:25:08;31.33;;;11.07;;
58470;SDS011;44258;51.288;12.068;2023-03-04T03:27:36;35.40;;;12.20;;
58470;SDS011;44258;51.288;12.068;2023-03-04T03:30:03;30.55;;;12.18;;
58470;SDS011;44258;51.288;12.068;2023-03-04T03:32:31;27.30;;;10.85;;
58470;SDS011;44258;51.288;12.068;2023-03-04T03:34:59;36.25;;;12.57;;
58470;SDS011;44258;51.288;12.068;2023-03-04T03:37:25;35.33;;;12.68;;
58470;SDS011;44258;51.288;12.068;2023-03-04T03:39:51;35.13;;;13.38;;
58470;SDS011;44258;51.288;12.068;2023-03-04T03:42:18;40.17;;;13.55;;
58470;SDS011;44258;51.288;12.068;2023-03-04T03:44:44;36.03;;;13.63;;
58470;SDS011;44258;51.288;12.068;2023-03-04T03:47:11;34.20;;;13.43;;
58470;SDS011;44258;51.288;12.068;2023-03-04T03:49:37;32.42;;;12.93;;
58470;SDS011;44258;51.288;12.068;2023-03-04T03:52:05;30.30;;;12.02;;
58470;SDS011;44258;51.288;12.068;2023-03-04T03:54:33;35.50;;;13.93;;
58470;SDS011;44258;51.288;12.068;2023-03-04T03:56:59;36.92;;;15.15;;
58470;SDS011;44258;51.288;12.068;2023-03-04T03:59:26;36.63;;;12.95;;
58470;SDS011;44258;51.288;12.068;2023-03-04T04:01:52;30.83;;;12.05;;
58470;SDS011;44258;51.288;12.068;2023-03-04T04:04:19;34.08;;;12.93;;
58470;SDS011;44258;51.288;12.068;2023-03-04T04:06:45;33.40;;;13.40;;
58470;SDS011;44258;51.288;12.068;2023-03-04T04:09:13;31.85;;;13.07;;
58470;SDS011;44258;51.288;12.068;2023-03-04T04:11:39;43.53;;;14.85;;
58470;SDS011;44258;51.288;12.068;2023-03-04T04:14:06;35.67;;;13.93;;
58470;SDS011;44258;51.288;12.068;2023-03-04T04:16:32;42.22;;;15.55;;
58470;SDS011;44258;51.288;12.068;2023-03-04T04:18:59;41.42;;;16.05;;
58470;SDS011;44258;51.288;12.068;2023-03-04T04:21:25;43.78;;;16.52;;
58470;SDS011;44258;51.288;12.068;2023-03-04T04:23:51;37.50;;;15.27;;
58470;SDS011;44258;51.288;12.068;2023-03-04T04:26:19;45.67;;;17.75;;
58470;SDS011;44258;51.288;12.068;2023-03-04T04:28:46;42.53;;;17.30;;
58470;SDS011;44258;51.288;12.068;2023-03-04T04:31:12;44.50;;;16.05;;
58470;SDS011;44258;51.288;12.068;2023-03-04T04:33:39;35.38;;;14.10;;
58470;SDS011;44258;51.288;12.068;2023-03-04T04:36:05;34.38;;;12.57;;
58470;SDS011;44258;51.288;12.068;2023-03-04T04:38:33;32.63;;;13.13;;
58470;SDS011;44258;51.288;12.068;2023-03-04T04:40:59;28.33;;;11.85;;
58470;SDS011;44258;51.288;12.068;2023-03-04T04:43:27;25.08;;;10.38;;
58470;SDS011;44258;51.288;12.068;2023-03-04T04:45:54;31.50;;;12.02;;
58470;SDS011;44258;51.288;12.068;2023-03-04T04:48:20;28.08;;;10.55;;
58470;SDS011;44258;51.288;12.068;2023-03-04T04:50:52;30.70;;;11.23;;
58470;SDS011;44258;51.288;12.068;2023-03-04T04:53:19;28.55;;;11.15;;
58470;SDS011;44258;51.288;12.068;2023-03-04T04:55:46;27.88;;;11.02;;
58470;SDS011;44258;51.288;12.068;2023-03-04T04:58:12;25.45;;;9.32;;
58470;SDS011;44258;51.288;12.068;2023-03-04T05:00:40;27.77;;;9.88;;
58470;SDS011;44258;51.288;12.068;2023-03-04T05:03:06;34.25;;;10.82;;
58470;SDS011;44258;51.288;12.068;2023-03-04T05:05:33;27.63;;;9.85;;
58470;SDS011;44258;51.288;12.068;2023-03-04T05:07:59;22.30;;;9.57;;
58470;SDS011;44258;51.288;12.068;2023-03-04T05:10:26;25.63;;;9.18;;
58470;SDS011;44258;51.288;12.068;2023-03-04T05:12:52;25.90;;;9.48;;
58470;SDS011;44258;51.288;12.068;2023-03-04T05:15:19;26.10;;;9.65;;
58470;SDS011;44258;51.288;12.068;2023-03-04T05:17:46;24.02;;;9.85;;
58470;SDS011;44258;51.288;12.068;2023-03-04T05:20:13;25.75;;;9.98;;
58470;SDS011;44258;51.288;12.068;2023-03-04T05:22:39;26.48;;;8.65;;
58470;SDS011;44258;51.288;12.068;2023-03-04T05:25:06;23.52;;;8.80;;
58470;SDS011;44258;51.288;12.068;2023-03-04T05:27:33;29.40;;;10.07;;
58470;SDS011;44258;51.288;12.068;2023-03-04T05:29:59;28.70;;;9.43;;
58470;SDS011;44258;51.288;12.068;2023-03-04T05:32:26;24.70;;;9.45;;
58470;SDS011;44258;51.288;12.068;2023-03-04T05:34:54;24.75;;;10.57;;
58470;SDS011;44258;51.288;12.068;2023-03-04T05:37:20;26.35;;;10.82;;
58470;SDS011;44258;51.288;12.068;2023-03-04T05:39:47;30.50;;;10.02;;
58470;SDS011;44258;51.288;12.068;2023-03-04T05:42:13;28.00;;;10.52;;
58470;SDS011;44258;51.288;12.068;2023-03-04T05:44:40;25.65;;;9.77;;
58470;SDS011;44258;51.288;12.068;2023-03-04T05:47:06;26.60;;;11.02;;
58470;SDS011;44258;51.288;12.068;2023-03-04T05:49:33;25.73;;;10.07;;
58470;SDS011;44258;51.288;12.068;2023-03-04T05:52:00;27.50;;;10.45;;
58470;SDS011;44258;51.288;12.068;2023-03-04T05:54:27;27.58;;;10.65;;
58470;SDS011;44258;51.288;12.068;2023-03-04T05:56:53;29.05;;;10.55;;
58470;SDS011;44258;51.288;12.068;2023-03-04T05:59:20;28.40;;;10.95;;
58470;SDS011;44258;51.288;12.068;2023-03-04T06:01:47;27.67;;;10.07;;
58470;SDS011;44258;51.288;12.068;2023-03-04T06:04:14;28.75;;;9.50;;
58470;SDS011;44258;51.288;12.068;2023-03-04T06:06:40;31.85;;;11.43;;
58470;SDS011;44258;51.288;12.068;2023-03-04T06:09:08;27.88;;;9.93;;
58470;SDS011;44258;51.288;12.068;2023-03-04T06:11:34;24.95;;;9.07;;
58470;SDS011;44258;51.288;12.068;2023-03-04T06:14:01;27.33;;;9.63;;
58470;SDS011;44258;51.288;12.068;2023-03-04T06:16:27;27.45;;;9.68;;
58470;SDS011;44258;51.288;12.068;2023-03-04T06:18:54;28.63;;;10.27;;
58470;SDS011;44258;51.288;12.068;2023-03-04T06:21:20;24.67;;;9.15;;
58470;SDS011;44258;51.288;12.068;2023-03-04T06:23:47;24.95;;;9.32;;
58470;SDS011;44258;51.288;12.068;2023-03-04T06:26:14;28.73;;;9.60;;
58470;SDS011;44258;51.288;12.068;2023-03-04T06:28:41;26.65;;;9.23;;
58470;SDS011;44258;51.288;12.068;2023-03-04T06:31:08;25.33;;;8.77;;
58470;SDS011;44258;51.288;12.068;2023-03-04T06:33:34;23.88;;;8.30;;
58470;SDS011;44258;51.288;12.068;2023-03-04T06:36:01;22.60;;;8.32;;
58470;SDS011;44258;51.288;12.068;2023-03-04T06:38:28;25.52;;;8.18;;
58470;SDS011;44258;51.288;12.068;2023-03-04T06:40:54;24.45;;;7.93;;
58470;SDS011;44258;51.288;12.068;2023-03-04T06:43:22;18.48;;;6.32;;
58470;SDS011;44258;51.288;12.068;2023-03-04T06:45:48;21.27;;;7.78;;
58470;SDS011;44258;51.288;12.068;2023-03-04T06:48:15;20.52;;;6.95;;
58470;SDS011;44258;51.288;12.068;2023-03-04T06:50:41;24.15;;;7.43;;
58470;SDS011;44258;51.288;12.068;2023-03-04T06:53:08;18.60;;;6.25;;
58470;SDS011;44258;51.288;12.068;2023-03-04T06:55:34;18.00;;;6.72;;
58470;SDS011;44258;51.288;12.068;2023-03-04T06:58:01;18.85;;;7.07;;
58470;SDS011;44258;51.288;12.068;2023-03-04T07:00:28;20.63;;;6.22;;
58470;SDS011;44258;51.288;12.068;2023-03-04T07:02:56;26.40;;;6.43;;
58470;SDS011;44258;51.288;12.068;2023-03-04T07:05:23;15.88;;;5.78;;
58470;SDS011;44258;51.288;12.068;2023-03-04T07:07:50;20.90;;;6.50;;
58470;SDS011;44258;51.288;12.068;2023-03-04T07:10:17;17.88;;;6.32;;
58470;SDS011;44258;51.288;12.068;2023-03-04T07:12:44;19.27;;;5.55;;
58470;SDS011;44258;51.288;12.068;2023-03-04T07:15:11;18.50;;;5.78;;
58470;SDS011;44258;51.288;12.068;2023-03-04T07:17:39;21.45;;;6.45;;
58470;SDS011;44258;51.288;12.068;2023-03-04T07:20:06;19.60;;;5.90;;
58470;SDS011;44258;51.288;12.068;2023-03-04T07:22:32;15.55;;;5.65;;
58470;SDS011;44258;51.288;12.068;2023-03-04T07:24:59;17.25;;;5.43;;
58470;SDS011;44258;51.288;12.068;2023-03-04T07:27:25;20.50;;;6.03;;
58470;SDS011;44258;51.288;12.068;2023-03-04T07:29:52;22.27;;;6.35;;
58470;SDS011;44258;51.288;12.068;2023-03-04T07:32:18;21.20;;;6.03;;
58470;SDS011;44258;51.288;12.068;2023-03-04T07:34:46;18.60;;;5.63;;
58470;SDS011;44258;51.288;12.068;2023-03-04T07:37:12;22.38;;;6.07;;
58470;SDS011;44258;51.288;12.068;2023-03-04T07:39:39;16.85;;;5.40;;
58470;SDS011;44258;51.288;12.068;2023-03-04T07:42:05;14.32;;;4.68;;
58470;SDS011;44258;51.288;12.068;2023-03-04T07:44:32;14.77;;;4.63;;
58470;SDS011;44258;51.288;12.068;2023-03-04T07:46:58;18.02;;;4.90;;
58470;SDS011;44258;51.288;12.068;2023-03-04T07:49:24;17.25;;;5.78;;
58470;SDS011;44258;51.288;12.068;2023-03-04T07:51:52;14.93;;;5.22;;
58470;SDS011;44258;51.288;12.068;2023-03-04T07:54:18;12.18;;;4.57;;
58470;SDS011;44258;51.288;12.068;2023-03-04T07:56:45;15.52;;;4.68;;
58470;SDS011;44258;51.288;12.068;2023-03-04T07:59:12;14.50;;;4.32;;
58470;SDS011;44258;51.288;12.068;2023-03-04T08:01:38;18.45;;;5.05;;
58470;SDS011;44258;51.288;12.068;2023-03-04T08:04:05;14.82;;;4.65;;
58470;SDS011;44258;51.288;12.068;2023-03-04T08:06:32;15.20;;;5.18;;
58470;SDS011;44258;51.288;12.068;2023-03-04T08:09:01;17.83;;;4.82;;
58470;SDS011;44258;51.288;12.068;2023-03-04T08:11:30;13.82;;;4.55;;
58470;SDS011;44258;51.288;12.068;2023-03-04T08:13:57;13.52;;;4.38;;
58470;SDS011;44258;51.288;12.068;2023-03-04T08:16:24;11.05;;;4.00;;
58470;SDS011;44258;51.288;12.068;2023-03-04T08:18:52;17.92;;;4.78;;
58470;SDS011;44258;51.288;12.068;2023-03-04T08:21:21;14.00;;;4.78;;
58470;SDS011;44258;51.288;12.068;2023-03-04T08:23:49;18.33;;;4.68;;
58470;SDS011;44258;51.288;12.068;2023-03-04T08:26:18;13.73;;;5.00;;
58470;SDS011;44258;51.288;12.068;2023-03-04T08:28:46;15.98;;;4.35;;
58470;SDS011;44258;51.288;12.068;2023-03-04T08:31:13;17.95;;;4.88;;
58470;SDS011;44258;51.288;12.068;2023-03-04T08:33:42;14.07;;;3.88;;
58470;SDS011;44258;51.288;12.068;2023-03-04T08:36:09;16.27;;;4.30;;
58470;SDS011;44258;51.288;12.068;2023-03-04T08:38:36;21.02;;;4.90;;
58470;SDS011;44258;51.288;12.068;2023-03-04T08:41:03;14.07;;;3.85;;
58470;SDS011;44258;51.288;12.068;2023-03-04T08:43:32;10.63;;;3.97;;
58470;SDS011;44258;51.288;12.068;2023-03-04T08:45:59;13.75;;;4.28;;
58470;SDS011;44258;51.288;12.068;2023-03-04T08:48:26;11.68;;;3.90;;
58470;SDS011;44258;51.288;12.068;2023-03-04T08:50:52;10.63;;;4.03;;
58470;SDS011;44258;51.288;12.068;2023-03-04T08:53:19;12.05;;;3.90;;
58470;SDS011;44258;51.288;12.068;2023-03-04T08:55:46;13.38;;;3.78;;
58470;SDS011;44258;51.288;12.068;2023-03-04T08:58:13;11.57;;;3.65;;
58470;SDS011;44258;51.288;12.068;2023-03-04T09:00:41;11.70;;;3.63;;
58470;SDS011;44258;51.288;12.068;2023-03-04T09:03:12;13.80;;;3.75;;
58470;SDS011;44258;51.288;12.068;2023-03-04T09:05:39;12.48;;;3.80;;
58470;SDS011;44258;51.288;12.068;2023-03-04T09:08:06;18.35;;;3.80;;
58470;SDS011;44258;51.288;12.068;2023-03-04T09:10:32;11.57;;;3.70;;
58470;SDS011;44258;51.288;12.068;2023-03-04T09:12:59;11.20;;;3.50;;
58470;SDS011;44258;51.288;12.068;2023-03-04T09:15:26;15.52;;;4.10;;
58470;SDS011;44258;51.288;12.068;2023-03-04T09:17:54;10.95;;;3.22;;
58470;SDS011;44258;51.288;12.068;2023-03-04T09:20:20;11.40;;;3.20;;
58470;SDS011;44258;51.288;12.068;2023-03-04T09:22:47;11.52;;;3.45;;
58470;SDS011;44258;51.288;12.068;2023-03-04T09:25:14;11.20;;;3.20;;
58470;SDS011;44258;51.288;12.068;2023-03-04T09:27:40;13.38;;;3.33;;
58470;SDS011;44258;51.288;12.068;2023-03-04T09:30:07;9.93;;;2.70;;
58470;SDS011;44258;51.288;12.068;2023-03-04T09:32:35;11.05;;;3.10;;
58470;SDS011;44258;51.288;12.068;2023-03-04T09:35:03;8.75;;;2.60;;
58470;SDS011;44258;51.288;12.068;2023-03-04T09:37:30;11.55;;;3.13;;
58470;SDS011;44258;51.288;12.068;2023-03-04T09:39:56;8.20;;;2.85;;
58470;SDS011;44258;51.288;12.068;2023-03-04T09:42:24;7.03;;;2.88;;
58470;SDS011;44258;51.288;12.068;2023-03-04T09:44:52;8.23;;;2.63;;
58470;SDS011;44258;51.288;12.068;2023-03-04T09:47:20;10.50;;;3.00;;
58470;SDS011;44258;51.288;12.068;2023-03-04T09:49:51;9.75;;;3.00;;
58470;SDS011;44258;51.288;12.068;2023-03-04T09:52:25;11.85;;;2.80;;
58470;SDS011;44258;51.288;12.068;2023-03-04T09:55:02;8.00;;;2.67;;
58470;SDS011;44258;51.288;12.068;2023-03-04T09:57:46;7.38;;;2.75;;
58470;SDS011;44258;51.288;12.068;2023-03-04T10:00:16;8.00;;;2.75;;
58470;SDS011;44258;51.288;12.068;2023-03-04T10:05:35;9.38;;;2.90;;
58470;SDS011;44258;51.288;12.068;2023-03-04T10:08:11;10.57;;;2.80;;
58470;SDS011;44258;51.288;12.068;2023-03-04T10:11:00;6.80;;;2.58;;
58470;SDS011;44258;51.288;12.068;2023-03-04T10:13:30;8.35;;;2.78;;
58470;SDS011;44258;51.288;12.068;2023-03-04T10:16:03;8.27;;;2.97;;
58470;SDS011;44258;51.288;12.068;2023-03-04T10:18:35;7.47;;;2.95;;
58470;SDS011;44258;51.288;12.068;2023-03-04T10:21:07;6.00;;;2.40;;
58470;SDS011;44258;51.288;12.068;2023-03-04T10:23:42;6.55;;;2.30;;
58470;SDS011;44258;51.288;12.068;2023-03-04T10:26:09;7.05;;;2.40;;
58470;SDS011;44258;51.288;12.068;2023-03-04T10:28:39;8.93;;;2.63;;
58470;SDS011;44258;51.288;12.068;2023-03-04T10:31:08;10.75;;;2.78;;
58470;SDS011;44258;51.288;12.068;2023-03-04T10:33:42;6.87;;;2.80;;
58470;SDS011;44258;51.288;12.068;2023-03-04T10:36:14;7.45;;;2.45;;
58470;SDS011;44258;51.288;12.068;2023-03-04T10:38:54;6.85;;;2.50;;
58470;SDS011;44258;51.288;12.068;2023-03-04T10:41:24;8.48;;;2.50;;
58470;SDS011;44258;51.288;12.068;2023-03-04T10:43:59;12.40;;;3.90;;
58470;SDS011;44258;51.288;12.068;2023-03-04T10:46:28;9.70;;;3.20;;
58470;SDS011;44258;51.288;12.068;2023-03-04T10:48:54;7.82;;;3.33;;
58470;SDS011;44258;51.288;12.068;2023-03-04T10:51:22;7.95;;;3.10;;
58470;SDS011;44258;51.288;12.068;2023-03-04T10:53:50;5.47;;;2.22;;
58470;SDS011;44258;51.288;12.068;2023-03-04T10:56:32;6.40;;;1.95;;
58470;SDS011;44258;51.288;12.068;2023-03-04T11:01:55;8.95;;;3.38;;
58470;SDS011;44258;51.288;12.068;2023-03-04T11:04:23;8.52;;;3.10;;
58470;SDS011;44258;51.288;12.068;2023-03-04T11:06:50;9.00;;;3.25;;
58470;SDS011;44258;51.288;12.068;2023-03-04T11:09:20;10.20;;;3.92;;
58470;SDS011;44258;51.288;12.068;2023-03-04T11:11:49;7.32;;;2.60;;
58470;SDS011;44258;51.288;12.068;2023-03-04T11:14:18;7.10;;;2.15;;
58470;SDS011;44258;51.288;12.068;2023-03-04T11:16:51;4.93;;;2.05;;
58470;SDS011;44258;51.288;12.068;2023-03-04T11:19:19;5.78;;;1.90;;
58470;SDS011;44258;51.288;12.068;2023-03-04T11:21:49;5.32;;;1.98;;
58470;SDS011;44258;51.288;12.068;2023-03-04T11:24:18;5.25;;;1.70;;
58470;SDS011;44258;51.288;12.068;2023-03-04T11:26:53;5.38;;;1.75;;
58470;SDS011;44258;51.288;12.068;2023-03-04T11:29:23;2.63;;;1.17;;
58470;SDS011;44258;51.288;12.068;2023-03-04T11:31:54;3.95;;;1.55;;
58470;SDS011;44258;51.288;12.068;2023-03-04T11:34:27;4.22;;;1.55;;
58470;SDS011;44258;51.288;12.068;2023-03-04T11:37:00;2.67;;;1.30;;
58470;SDS011;44258;51.288;12.068;2023-03-04T11:39:32;5.53;;;2.28;;
58470;SDS011;44258;51.288;12.068;2023-03-04T11:42:03;4.63;;;1.90;;
58470;SDS011;44258;51.288;12.068;2023-03-04T11:44:37;4.57;;;1.58;;
58470;SDS011;44258;51.288;12.068;2023-03-04T11:47:12;3.22;;;1.48;;
58470;SDS011;44258;51.288;12.068;2023-03-04T11:49:52;4.03;;;1.80;;
58470;SDS011;44258;51.288;12.068;2023-03-04T11:52:42;3.75;;;1.17;;
58470;SDS011;44258;51.288;12.068;2023-03-04T11:55:24;3.42;;;1.50;;
58470;SDS011;44258;51.288;12.068;2023-03-04T11:58:04;5.97;;;1.60;;
58470;SDS011;44258;51.288;12.068;2023-03-04T12:00:45;3.88;;;1.60;;
58470;SDS011;44258;51.288;12.068;2023-03-04T12:03:23;4.57;;;1.40;;
58470;SDS011;44258;51.288;12.068;2023-03-04T12:06:05;3.45;;;1.20;;
58470;SDS011;44258;51.288;12.068;2023-03-04T12:08:39;4.32;;;1.65;;
58470;SDS011;44258;51.288;12.068;2023-03-04T12:11:18;4.70;;;1.80;;
58470;SDS011;44258;51.288;12.068;2023-03-04T12:14:07;6.00;;;2.30;;
58470;SDS011;44258;51.288;12.068;2023-03-04T12:16:51;4.47;;;1.90;;
58470;SDS011;44258;51.288;12.068;2023-03-04T12:19:46;9.10;;;4.20;;
58470;SDS011;44258;51.288;12.068;2023-03-04T12:22:25;6.88;;;2.38;;
58470;SDS011;44258;51.288;12.068;2023-03-04T12:27:57;3.33;;;1.50;;
58470;SDS011;44258;51.288;12.068;2023-03-04T12:30:39;3.83;;;1.45;;
58470;SDS011;44258;51.288;12.068;2023-03-04T12:33:20;2.58;;;1.27;;
58470;SDS011;44258;51.288;12.068;2023-03-04T12:36:00;4.60;;;1.55;;
58470;SDS011;44258;51.288;12.068;2023-03-04T12:38:39;5.13;;;1.50;;
58470;SDS011;44258;51.288;12.068;2023-03-04T12:41:29;3.00;;;1.52;;
58470;SDS011;44258;51.288;12.068;2023-03-04T12:44:08;4.47;;;1.42;;
58470;SDS011;44258;51.288;12.068;2023-03-04T12:46:43;3.38;;;1.42;;
58470;SDS011;44258;51.288;12.068;2023-03-04T12:49:45;5.30;;;1.35;;
58470;SDS011;44258;51.288;12.068;2023-03-04T12:52:21;3.17;;;1.42;;
58470;SDS011;44258;51.288;12.068;2023-03-04T12:54:58;5.00;;;1.70;;
58470;SDS011;44258;51.288;12.068;2023-03-04T12:57:29;3.58;;;1.50;;
58470;SDS011;44258;51.288;12.068;2023-03-04T12:59:58;5.50;;;1.70;;
58470;SDS011;44258;51.288;12.068;2023-03-04T13:02:53;4.40;;;1.63;;
58470;SDS011;44258;51.288;12.068;2023-03-04T13:05:28;3.17;;;1.27;;
58470;SDS011;44258;51.288;12.068;2023-03-04T13:08:07;3.40;;;1.42;;
58470;SDS011;44258;51.288;12.068;2023-03-04T13:10:42;4.00;;;1.40;;
58470;SDS011;44258;51.288;12.068;2023-03-04T13:16:01;6.82;;;2.20;;
58470;SDS011;44258;51.288;12.068;2023-03-04T13:18:30;4.88;;;2.00;;
58470;SDS011;44258;51.288;12.068;2023-03-04T13:21:07;5.40;;;1.83;;
58470;SDS011;44258;51.288;12.068;2023-03-04T13:23:45;5.20;;;2.10;;
58470;SDS011;44258;51.288;12.068;2023-03-04T13:26:19;4.95;;;2.13;;
58470;SDS011;44258;51.288;12.068;2023-03-04T13:28:52;4.38;;;1.90;;
58470;SDS011;44258;51.288;12.068;2023-03-04T13:31:33;5.13;;;1.77;;
58470;SDS011;44258;51.288;12.068;2023-03-04T13:34:40;4.68;;;2.30;;
58470;SDS011;44258;51.288;12.068;2023-03-04T13:37:23;3.92;;;1.67;;
58470;SDS011;44258;51.288;12.068;2023-03-04T13:45:48;5.13;;;1.95;;
58470;SDS011;44258;51.288;12.068;2023-03-04T13:48:27;7.57;;;2.00;;
58470;SDS011;44258;51.288;12.068;2023-03-04T13:50:57;5.70;;;1.83;;
58470;SDS011;44258;51.288;12.068;2023-03-04T13:59:00;4.32;;;2.00;;
58470;SDS011;44258;51.288;12.068;2023-03-04T14:01:31;3.38;;;1.35;;
58470;SDS011;44258;51.288;12.068;2023-03-04T14:04:00;4.72;;;1.67;;
58470;SDS011;44258;51.288;12.068;2023-03-04T14:06:39;4.22;;;1.40;;
58470;SDS011;44258;51.288;12.068;2023-03-04T14:09:11;5.55;;;1.77;;
58470;SDS011;44258;51.288;12.068;2023-03-04T14:11:38;7.28;;;1.70;;
58470;SDS011;44258;51.288;12.068;2023-03-04T14:14:09;3.72;;;1.52;;
58470;SDS011;44258;51.288;12.068;2023-03-04T14:16:38;3.63;;;1.50;;
58470;SDS011;44258;51.288;12.068;2023-03-04T14:19:14;6.32;;;2.00;;
58470;SDS011;44258;51.288;12.068;2023-03-04T14:21:45;9.25;;;2.03;;
58470;SDS011;44258;51.288;12.068;2023-03-04T14:24:13;6.95;;;2.28;;
58470;SDS011;44258;51.288;12.068;2023-03-04T14:26:41;7.00;;;2.15;;
58470;SDS011;44258;51.288;12.068;2023-03-04T14:29:21;9.43;;;2.75;;
58470;SDS011;44258;51.288;12.068;2023-03-04T14:31:49;6.63;;;2.20;;
58470;SDS011;44258;51.288;12.068;2023-03-04T14:34:19;7.03;;;2.10;;
58470;SDS011;44258;51.288;12.068;2023-03-04T14:36:50;7.78;;;2.08;;
58470;SDS011;44258;51.288;12.068;2023-03-04T14:39:17;5.45;;;1.83;;
58470;SDS011;44258;51.288;12.068;2023-03-04T14:41:45;7.25;;;2.28;;
58470;SDS011;44258;51.288;12.068;2023-03-04T14:44:13;7.43;;;2.20;;
58470;SDS011;44258;51.288;12.068;2023-03-04T14:46:51;6.28;;;1.83;;
58470;SDS011;44258;51.288;12.068;2023-03-04T14:49:22;12.32;;;3.03;;
58470;SDS011;44258;51.288;12.068;2023-03-04T14:51:50;8.50;;;2.83;;
58470;SDS011;44258;51.288;12.068;2023-03-04T14:54:26;9.25;;;2.60;;
58470;SDS011;44258;51.288;12.068;2023-03-04T14:56:54;7.18;;;2.88;;